Time;durP1;ratioP1;P1;durP2;ratioP2;P2;SDS_P1;SDS_P2;PMS_P1;PMS_P2;Temp;Humidity;BMP_temperature;BMP_pressure;BME280_temperature;BME280_humidity;BME280_pressure;Samples;Min_cycle;Max_cycle;Signal;HPM_P1;HPM_P2
2022/11/19 00:01:48;;;;;;;24.70;9.70;;;;;;;16.50;79.83;93627.16;5014555;28;20643;-82
2022/11/19 00:04:15;;;;;;;27.03;9.90;;;;;;;16.49;79.81;93631.50;5014247;28;20184;-82
2022/11/19 00:06:42;;;;;;;27.80;9.37;;;;;;;16.46;79.78;93634.47;5013341;28;20223;-83
2022/11/19 00:09:13;;;;;;;24.10;9.23;;;;;;;16.48;79.91;93632.50;5015169;28;20197;-82
2022/11/19 00:14:24;;;;;;;18.63;8.23;;;;;;;16.43;79.85;93647.78;5030053;28;20167;-81
2022/11/19 00:16:52;;;;;;;17.40;8.27;;;;;;;16.39;79.76;93646.59;5021005;28;20243;-81
2022/11/19 00:19:19;;;;;;;22.40;7.80;;;;;;;16.36;79.70;93641.03;5015507;28;20196;-81
2022/11/19 00:21:47;;;;;;;20.97;8.87;;;;;;;16.38;79.76;93646.78;5014715;28;20196;-81
2022/11/19 00:24:14;;;;;;;18.43;7.30;;;;;;;16.36;79.77;93649.56;5013125;28;20181;-83
2022/11/19 00:26:41;;;;;;;15.57;6.80;;;;;;;16.36;79.67;93654.72;5013573;28;20189;-82
2022/11/19 00:29:08;;;;;;;14.50;5.40;;;;;;;16.29;79.80;93649.56;5013369;28;20231;-81
2022/11/19 00:31:35;;;;;;;16.40;6.37;;;;;;;16.30;79.75;93643.41;5013139;28;20192;-82
2022/11/19 00:34:03;;;;;;;16.23;5.13;;;;;;;16.21;79.90;93638.66;5013342;28;20380;-81
2022/11/19 00:36:30;;;;;;;13.50;5.13;;;;;;;16.28;79.78;93648.00;5012488;28;20341;-81
2022/11/19 00:38:56;;;;;;;12.33;5.70;;;;;;;16.25;79.80;93650.16;5012747;28;20184;-81
2022/11/19 00:41:23;;;;;;;12.43;5.20;;;;;;;16.23;79.79;93662.44;5012319;28;20715;-82
2022/11/19 00:43:50;;;;;;;11.80;4.80;;;;;;;16.16;79.88;93653.94;5012437;28;20232;-81
2022/11/19 00:46:18;;;;;;;11.97;4.60;;;;;;;16.12;79.81;93638.06;5012591;28;20197;-82
2022/11/19 00:48:45;;;;;;;9.70;4.00;;;;;;;16.08;79.82;93634.28;5012735;28;20196;-82
2022/11/19 00:51:14;;;;;;;13.17;4.37;;;;;;;16.13;80.05;93646.59;5012939;28;20200;-82
2022/11/19 00:53:41;;;;;;;8.10;3.83;;;;;;;16.14;79.82;93658.47;5012220;28;20651;-82
2022/11/19 00:56:10;;;;;;;9.97;3.97;;;;;;;16.08;79.90;93652.34;5012064;28;20588;-82
2022/11/19 00:58:38;;;;;;;9.73;3.60;;;;;;;16.04;79.86;93649.34;5012808;28;20196;-82
2022/11/19 01:01:06;;;;;;;9.97;4.17;;;;;;;15.89;79.99;93624.72;5012078;28;20184;-83
2022/11/19 01:03:33;;;;;;;10.30;4.00;;;;;;;16.02;80.02;93655.72;5012388;28;20227;-82
2022/11/19 01:06:00;;;;;;;6.17;3.60;;;;;;;15.92;80.11;93653.50;5012244;28;20644;-83
2022/11/19 01:08:28;;;;;;;9.80;3.57;;;;;;;15.94;80.28;93656.69;5011593;28;20214;-82
2022/11/19 01:10:55;;;;;;;7.67;3.67;;;;;;;15.90;80.33;93663.22;5012732;28;20576;-83
2022/11/19 01:16:06;;;;;;;7.37;3.43;;;;;;;15.77;80.45;93661.41;5010901;28;20216;-81
2022/11/19 01:18:33;;;;;;;5.53;2.93;;;;;;;15.77;80.46;93663.19;5012798;28;20196;-82
2022/11/19 01:21:02;;;;;;;6.03;2.80;;;;;;;15.73;80.37;93662.78;5011999;28;20192;-80
2022/11/19 01:23:30;;;;;;;6.70;3.10;;;;;;;15.65;80.55;93651.84;5011902;28;20707;-83
2022/11/19 01:25:57;;;;;;;3.73;2.60;;;;;;;15.67;80.57;93673.06;5011753;28;20189;-83
2022/11/19 01:28:24;;;;;;;4.17;2.57;;;;;;;15.64;80.73;93669.09;5011568;28;20185;-82
2022/11/19 01:30:51;;;;;;;3.37;2.27;;;;;;;15.60;80.82;93654.97;5011670;28;20196;-83
2022/11/19 01:33:18;;;;;;;5.27;2.20;;;;;;;15.57;80.76;93676.75;5011546;28;20670;-83
2022/11/19 01:35:53;;;;;;;5.93;2.90;;;;;;;15.54;80.75;93661.72;5011777;28;20282;-82
2022/11/19 01:38:20;;;;;;;4.43;2.30;;;;;;;15.45;80.61;93649.16;5011431;28;20199;-83
2022/11/19 01:40:49;;;;;;;3.37;2.20;;;;;;;15.44;80.71;93661.25;5011973;28;20634;-82
2022/11/19 01:43:15;;;;;;;4.10;2.20;;;;;;;15.46;80.57;93679.91;5011068;28;20346;-82
2022/11/19 01:45:44;;;;;;;3.90;2.30;;;;;;;15.44;80.78;93674.13;5011686;28;20193;-84
2022/11/19 01:48:18;;;;;;;2.83;2.33;;;;;;;15.35;80.61;93665.00;5011589;28;20251;-81
2022/11/19 01:50:51;;;;;;;4.17;2.43;;;;;;;15.25;80.82;93647.31;5011384;28;20651;-82
2022/11/19 01:53:20;;;;;;;4.47;2.37;;;;;;;15.38;80.74;93679.28;5011414;28;21737;-82
2022/11/19 01:55:51;;;;;;;2.83;1.97;;;;;;;15.31;80.81;93662.00;5011783;28;20185;-81
2022/11/19 01:58:23;;;;;;;2.10;1.90;;;;;;;15.28;80.98;93659.00;5011298;28;20833;-82
2022/11/19 02:00:50;;;;;;;3.57;1.87;;;;;;;15.31;80.72;93667.16;5011631;28;20627;-82
2022/11/19 02:03:18;;;;;;;2.67;1.97;;;;;;;15.30;80.91;93667.34;5011313;28;20207;-83
2022/11/19 02:05:47;;;;;;;3.43;2.27;;;;;;;15.28;80.86;93670.13;5011775;28;20272;-81
2022/11/19 02:08:39;;;;;;;2.63;1.83;;;;;;;15.26;80.83;93674.66;5024322;28;20224;-82
2022/11/19 02:11:28;;;;;;;2.80;2.30;;;;;;;15.24;80.86;93668.91;5021601;28;20197;-83
2022/11/19 02:14:07;;;;;;;3.07;1.63;;;;;;;15.21;80.75;93658.19;5012020;28;20195;-82
2022/11/19 02:16:44;;;;;;;2.87;1.97;;;;;;;15.17;80.91;93659.56;5010959;28;20219;-82
2022/11/19 02:19:33;;;;;;;2.87;1.90;;;;;;;15.18;80.78;93667.09;5010446;28;20644;-82
2022/11/19 02:22:14;;;;;;;1.97;1.70;;;;;;;15.16;80.98;93674.22;5011243;28;20283;-82
2022/11/19 02:24:51;;;;;;;3.30;1.70;;;;;;;15.14;80.89;93683.91;5011361;28;20204;-83
2022/11/19 02:27:57;;;;;;;1.97;1.60;;;;;;;15.14;80.66;93681.34;5011077;28;20200;-82
2022/11/19 02:30:25;;;;;;;3.73;1.87;;;;;;;15.11;81.00;93688.63;5010805;28;20196;-82
2022/11/19 02:33:00;;;;;;;2.70;1.97;;;;;;;15.10;80.89;93692.22;5010985;28;20548;-82
2022/11/19 02:35:41;;;;;;;2.20;1.70;;;;;;;15.07;81.09;93695.97;5011133;28;20191;-82
2022/11/19 02:38:15;;;;;;;5.17;1.97;;;;;;;15.06;80.95;93697.72;5010883;28;20231;-82
2022/11/19 02:40:48;;;;;;;4.00;1.70;;;;;;;15.03;80.91;93703.28;5010909;28;20195;-82
2022/11/19 02:43:21;;;;;;;2.40;1.50;;;;;;;14.97;81.05;93700.66;5010247;28;20698;-82
2022/11/19 02:45:53;;;;;;;1.60;1.50;;;;;;;15.00;81.13;93713.16;5011174;28;20211;-83
2022/11/19 02:48:24;;;;;;;2.23;1.97;;;;;;;14.94;81.05;93713.88;5010949;28;20188;-82
2022/11/19 02:50:54;;;;;;;2.33;1.50;;;;;;;14.94;81.10;93724.19;5011498;28;20192;-82
2022/11/19 02:53:22;;;;;;;1.87;1.50;;;;;;;14.89;80.93;93721.38;5011784;28;20192;-82
2022/11/19 03:06:51;;;;;;;1.73;1.63;;;;;;;14.82;81.40;93759.97;4944100;29;20723;-82
2022/11/19 03:09:19;;;;;;;1.77;1.67;;;;;;;14.78;81.40;93762.09;4950064;29;20194;-81
2022/11/19 03:11:52;;;;;;;2.20;1.70;;;;;;;14.78;81.43;93767.25;4949691;29;20209;-81
2022/11/19 03:17:15;;;;;;;1.60;1.50;;;;;;;14.69;81.73;93759.84;4949030;29;20317;-83
2022/11/19 03:19:47;;;;;;;1.57;1.50;;;;;;;14.71;81.54;93766.41;4950240;29;20193;-80
2022/11/19 03:22:21;;;;;;;2.13;1.93;;;;;;;14.70;81.58;93764.00;4949679;29;20237;-82
2022/11/19 03:24:52;;;;;;;1.60;1.43;;;;;;;14.65;81.75;93771.50;4949887;29;20230;-82
2022/11/19 03:27:25;;;;;;;3.17;1.80;;;;;;;14.68;81.63;93776.25;4949060;29;20187;-81
2022/11/19 03:29:56;;;;;;;1.70;1.60;;;;;;;14.62;81.64;93774.44;4949141;29;20191;-82
2022/11/19 03:32:29;;;;;;;1.63;1.53;;;;;;;14.64;81.79;93783.56;4952859;29;20201;-81
2022/11/19 03:35:00;;;;;;;2.90;1.70;;;;;;;14.60;81.72;93781.56;4953653;29;20190;-82
2022/11/19 03:37:30;;;;;;;1.77;1.67;;;;;;;14.60;81.59;93782.34;4953174;29;20222;-81
2022/11/19 03:40:00;;;;;;;2.37;1.80;;;;;;;14.59;81.92;93780.72;4955608;29;20240;-82
2022/11/19 03:42:28;;;;;;;1.53;1.50;;;;;;;14.59;81.77;93792.81;4968753;29;20190;-82
2022/11/19 03:45:00;;;;;;;2.47;1.87;;;;;;;14.55;81.79;93790.63;5013835;28;20228;-80
2022/11/19 03:47:33;;;;;;;2.10;1.77;;;;;;;14.53;81.72;93781.47;5013896;28;20214;-81
2022/11/19 03:50:05;;;;;;;1.90;1.70;;;;;;;14.49;81.84;93788.75;5013179;28;20181;-81
2022/11/19 03:52:33;;;;;;;2.90;1.80;;;;;;;14.49;81.88;93786.19;5014035;28;20188;-81
2022/11/19 03:55:00;;;;;;;2.63;1.70;;;;;;;14.51;81.86;93798.91;5013669;28;20196;-81
2022/11/19 03:57:27;;;;;;;2.13;1.73;;;;;;;14.34;81.92;93774.34;5013786;28;20212;-81
2022/11/19 03:59:54;;;;;;;2.23;1.80;;;;;;;14.48;81.77;93805.19;5013831;28;20195;-81
2022/11/19 04:02:21;;;;;;;1.67;1.57;;;;;;;14.46;81.93;93801.97;5016605;28;20195;-82
2022/11/19 04:04:49;;;;;;;1.80;1.70;;;;;;;14.31;81.70;93796.88;5030769;28;20191;-82
2022/11/19 04:07:18;;;;;;;1.70;1.60;;;;;;;14.44;81.87;93813.44;5028464;28;20204;-82
2022/11/19 04:09:45;;;;;;;1.97;1.87;;;;;;;14.42;82.01;93815.38;5017108;28;20193;-81
2022/11/19 04:12:17;;;;;;;2.17;1.97;;;;;;;14.37;82.11;93820.28;5015135;28;20745;-81
2022/11/19 04:14:44;;;;;;;1.70;1.60;;;;;;;14.21;82.23;93793.81;5014504;28;20204;-81
2022/11/19 04:17:11;;;;;;;1.90;1.80;;;;;;;14.34;81.91;93824.03;5013577;28;20227;-81
2022/11/19 04:19:38;;;;;;;2.00;1.70;;;;;;;14.33;82.25;93835.25;5013973;28;20192;-81
2022/11/19 04:22:07;;;;;;;1.73;1.63;;;;;;;14.33;82.12;93842.97;5012924;28;20575;-81
2022/11/19 04:24:34;;;;;;;1.70;1.60;;;;;;;14.28;82.11;93825.53;5020844;28;20188;-82
2022/11/19 04:27:02;;;;;;;2.00;1.90;;;;;;;14.23;82.28;93832.97;5029531;28;20201;-82
2022/11/19 04:29:28;;;;;;;2.90;1.80;;;;;;;14.18;82.21;93826.81;5029244;28;20191;-82
2022/11/19 04:31:55;;;;;;;1.90;1.70;;;;;;;14.00;82.37;93798.91;5027976;28;20223;-81
2022/11/19 04:34:22;;;;;;;2.20;2.00;;;;;;;14.26;82.41;93842.91;5017312;28;20181;-81
2022/11/19 04:36:49;;;;;;;1.80;1.70;;;;;;;14.25;82.31;93843.13;5012661;28;20224;-82
2022/11/19 04:39:17;;;;;;;1.97;1.73;;;;;;;14.13;82.35;93841.97;5013201;28;20192;-82
2022/11/19 04:41:44;;;;;;;2.03;1.87;;;;;;;14.18;82.17;93861.03;5013088;28;20671;-82
2022/11/19 04:44:11;;;;;;;2.40;2.20;;;;;;;14.09;82.31;93851.81;5011472;28;20227;-83
2022/11/19 04:46:37;;;;;;;2.53;2.33;;;;;;;14.17;82.52;93862.00;5011984;28;20613;-82
2022/11/19 04:49:04;;;;;;;2.10;2.00;;;;;;;14.17;82.44;93862.00;5012470;28;20767;-81
2022/11/19 04:51:31;;;;;;;2.43;2.23;;;;;;;14.20;82.34;93871.13;5013098;28;20184;-82
2022/11/19 04:53:58;;;;;;;2.33;2.13;;;;;;;14.18;82.23;93868.72;5012880;28;20215;-82
2022/11/19 04:56:26;;;;;;;2.57;2.30;;;;;;;14.21;82.36;93883.03;5012420;28;20204;-81
2022/11/19 04:58:53;;;;;;;2.80;2.40;;;;;;;14.20;82.33;93883.97;5012522;28;20184;-81
2022/11/19 05:01:20;;;;;;;2.40;2.20;;;;;;;14.06;82.38;93859.88;5012120;28;20199;-85
2022/11/19 05:03:47;;;;;;;2.40;2.20;;;;;;;14.16;82.49;93880.16;5012402;28;20695;-81
2022/11/19 05:06:14;;;;;;;2.83;2.50;;;;;;;14.19;82.53;93900.38;5011710;28;20192;-81
2022/11/19 05:08:41;;;;;;;2.50;2.30;;;;;;;14.13;82.53;93891.63;5012467;28;20188;-80
2022/11/19 05:11:08;;;;;;;2.20;2.10;;;;;;;14.19;82.49;93913.25;5012748;28;20648;-82
2022/11/19 05:13:36;;;;;;;2.97;2.27;;;;;;;14.14;82.49;93923.28;5012962;28;20192;-81
2022/11/19 05:16:03;;;;;;;2.57;2.37;;;;;;;14.17;82.56;93931.44;5012607;28;20679;-81
2022/11/19 05:18:30;;;;;;;3.00;2.40;;;;;;;14.16;82.52;93932.41;5012924;28;20204;-82
2022/11/19 05:20:57;;;;;;;3.23;2.37;;;;;;;14.16;82.45;93949.59;5012504;28;20214;-82
2022/11/19 05:23:24;;;;;;;4.53;2.80;;;;;;;14.15;82.47;93948.00;5014208;28;20262;-82
2022/11/19 05:25:51;;;;;;;3.90;2.50;;;;;;;14.15;82.76;93964.22;5014884;28;20231;-82
2022/11/19 05:28:21;;;;;;;2.77;2.50;;;;;;;13.84;82.48;93920.69;5014912;28;20188;-83
2022/11/19 05:30:49;;;;;;;3.63;2.80;;;;;;;13.83;82.64;93919.09;5015497;28;20682;-82
2022/11/19 05:33:15;;;;;;;4.30;2.70;;;;;;;14.13;82.63;93968.75;5020921;28;20191;-80
2022/11/19 05:35:45;;;;;;;3.60;2.80;;;;;;;14.12;82.76;93974.88;5028295;28;20188;-80
2022/11/19 05:38:12;;;;;;;3.20;2.90;;;;;;;14.12;82.53;93974.06;5027010;28;20231;-82
2022/11/19 05:40:39;;;;;;;2.90;2.70;;;;;;;14.11;82.78;93978.41;5026546;28;20180;-81
2022/11/19 05:43:05;;;;;;;3.93;3.53;;;;;;;14.06;82.67;93973.00;5028491;28;20238;-80
2022/11/19 05:45:33;;;;;;;4.60;3.47;;;;;;;14.12;82.74;93995.44;5027332;28;20187;-82
2022/11/19 05:48:01;;;;;;;3.80;3.07;;;;;;;14.13;82.88;94007.31;5027819;28;20192;-83
2022/11/19 05:50:28;;;;;;;4.93;3.10;;;;;;;14.14;82.75;94008.91;5022802;28;20176;-82
2022/11/19 05:52:55;;;;;;;4.20;3.33;;;;;;;13.78;82.88;93952.25;5015777;28;20652;-82
2022/11/19 05:55:22;;;;;;;3.67;3.30;;;;;;;14.17;82.43;94008.56;5018385;28;20191;-82
2022/11/19 05:57:52;;;;;;;3.57;3.20;;;;;;;13.99;82.53;93977.28;5017311;28;20219;-82
2022/11/19 06:00:19;;;;;;;3.53;3.23;;;;;;;14.20;82.57;94005.63;5031222;28;20194;-82
2022/11/19 06:02:46;;;;;;;4.03;3.70;;;;;;;13.94;82.57;93964.91;5031144;28;20188;-82
2022/11/19 06:05:16;;;;;;;4.10;3.53;;;;;;;14.18;82.47;93996.50;5020052;28;20191;-81
2022/11/19 06:07:42;;;;;;;5.03;4.03;;;;;;;14.25;82.58;94010.28;5015712;28;20192;-81
2022/11/19 06:10:10;;;;;;;5.53;3.93;;;;;;;14.02;82.37;93982.03;5015495;28;20197;-82
2022/11/19 06:12:37;;;;;;;5.07;4.10;;;;;;;14.27;82.55;94028.88;5016108;28;20668;-82
2022/11/19 06:15:07;;;;;;;4.63;3.90;;;;;;;14.01;82.53;93988.97;5016260;28;20192;-81
2022/11/19 06:17:34;;;;;;;4.90;4.40;;;;;;;14.26;82.56;94035.81;4991970;28;20609;-80
2022/11/19 06:20:02;;;;;;;4.47;4.07;;;;;;;14.10;82.31;94009.44;4992307;28;20188;-81
2022/11/19 06:22:30;;;;;;;4.03;3.73;;;;;;;14.28;82.57;94044.13;4996722;28;20185;-81
2022/11/19 06:24:59;;;;;;;5.63;4.60;;;;;;;14.36;82.44;94065.59;5011653;28;20187;-82
2022/11/19 06:27:26;;;;;;;5.07;4.30;;;;;;;14.37;82.49;94068.00;5011857;28;20619;-81
2022/11/19 06:29:53;;;;;;;6.40;4.03;;;;;;;14.39;82.27;94084.06;5011856;28;20236;-81
2022/11/19 06:32:20;;;;;;;5.17;4.77;;;;;;;14.42;82.27;94075.19;5012076;28;20731;-82
2022/11/19 06:34:47;;;;;;;4.93;4.53;;;;;;;14.45;82.23;94082.56;5011590;28;20193;-81
2022/11/19 06:37:14;;;;;;;5.30;4.80;;;;;;;14.38;82.54;94061.91;5013493;28;20699;-81
2022/11/19 06:39:45;;;;;;;6.10;4.80;;;;;;;14.51;82.19;94081.91;5014946;28;20707;-81
2022/11/19 06:44:56;;;;;;;5.97;5.23;;;;;;;14.57;82.13;94101.75;5013050;28;20625;-83
2022/11/19 06:47:23;;;;;;;5.97;5.40;;;;;;;14.63;82.09;94108.75;5012417;28;20192;-82
2022/11/19 06:49:49;;;;;;;6.63;5.30;;;;;;;14.67;81.77;94115.16;5011997;28;20196;-82
2022/11/19 06:52:16;;;;;;;7.00;5.57;;;;;;;14.71;81.92;94110.47;5013659;28;20180;-82
2022/11/19 06:54:45;;;;;;;6.13;5.50;;;;;;;14.75;81.94;94112.50;5011530;28;20568;-83
2022/11/19 06:57:11;;;;;;;4.70;4.23;;;;;;;14.85;81.79;94109.66;5012246;28;20226;-85
2022/11/19 06:59:38;;;;;;;6.00;4.77;;;;;;;15.11;81.41;94116.94;5010238;28;20570;-82
2022/11/19 07:02:05;;;;;;;8.40;5.13;;;;;;;15.38;81.81;94110.31;5010734;28;20230;-81
2022/11/19 07:04:37;;;;;;;5.13;4.60;;;;;;;15.83;82.64;94126.47;5008873;28;20193;-80
2022/11/19 07:07:05;;;;;;;7.10;5.03;;;;;;;16.29;83.25;94123.50;5011301;28;20181;-84
2022/11/19 07:09:34;;;;;;;4.97;4.53;;;;;;;16.80;83.66;94126.69;5012933;28;20199;-82
2022/11/19 07:12:02;;;;;;;5.13;4.63;;;;;;;17.28;83.32;94113.81;5013801;28;20210;-83
2022/11/19 07:14:29;;;;;;;5.13;4.63;;;;;;;17.80;82.43;94129.69;5012851;28;20195;-86
2022/11/19 07:16:57;;;;;;;7.23;4.20;;;;;;;17.92;81.54;94088.50;5012650;28;20203;-82
2022/11/19 07:19:24;;;;;;;6.27;4.40;;;;;;;18.75;80.90;94132.97;5008247;28;20212;-82
2022/11/19 07:21:51;;;;;;;5.33;4.67;;;;;;;18.93;80.04;94077.91;5010508;28;20200;-81
2022/11/19 07:24:18;;;;;;;5.57;4.47;;;;;;;19.78;78.75;94130.44;5012227;28;20184;-81
2022/11/19 07:26:47;;;;;;;8.53;4.27;;;;;;;20.13;77.53;94117.06;5012820;28;20624;-83
2022/11/19 07:36:13;;;;;;;4.00;3.40;;;;;;;21.82;73.37;94125.41;4875695;29;20725;-83
2022/11/19 07:38:40;;;;;;;5.43;3.78;;;;;;;21.98;72.46;94099.53;4929296;29;20780;-83
2022/11/19 07:42:48;;;;;;;4.78;4.00;;;;;;;22.20;71.90;94123.28;4920355;29;20289;-84
2022/11/19 07:43:56;;;;;;;4.15;3.75;;;;;;;22.21;71.25;94111.84;4917360;29;20223;-87
2022/11/19 07:46:23;;;;;;;4.25;3.80;;;;;;;22.37;70.80;94135.66;4918188;29;20200;-84
2022/11/19 07:48:53;;;;;;;4.90;3.72;;;;;;;22.50;69.71;94141.47;4914325;29;20203;-83
2022/11/19 07:51:22;;;;;;;4.93;3.40;;;;;;;22.54;69.28;94134.00;4914298;29;20662;-84
2022/11/19 07:53:52;;;;;;;14.10;3.45;;;;;;;22.60;77.58;94127.88;4913617;29;20660;-80
2022/11/19 07:56:28;;;;;;;23.17;4.32;;;;;;;22.63;79.79;94108.38;4913527;29;20718;-83
2022/11/19 07:59:13;;;;;;;27.73;4.40;;;;;;;22.93;79.72;94129.94;4924568;29;20351;-85
2022/11/19 08:01:39;;;;;;;9.48;3.63;;;;;;;23.13;79.17;94136.63;4933281;29;20281;-85
2022/11/19 08:04:06;;;;;;;14.93;4.32;;;;;;;23.28;78.60;94152.59;5008360;28;20196;-84
2022/11/19 08:06:35;;;;;;;16.65;4.00;;;;;;;23.42;78.44;94150.53;5000902;28;20234;-83
2022/11/19 08:09:04;;;;;;;10.55;3.65;;;;;;;23.29;77.62;94118.44;5013487;28;20392;-83
2022/11/19 08:11:31;;;;;;;11.63;3.58;;;;;;;23.54;76.82;94144.25;5012327;28;20196;-82
2022/11/19 08:13:59;;;;;;;7.50;3.92;;;;;;;23.62;76.50;94156.16;5012433;28;20188;-85
2022/11/19 08:19:16;;;;;;;7.45;3.60;;;;;;;24.42;73.25;94176.19;5012114;28;20776;-85
2022/11/19 08:21:46;;;;;;;5.60;3.22;;;;;;;24.79;72.11;94162.69;5012560;28;20199;-84
2022/11/19 08:24:14;;;;;;;6.03;3.40;;;;;;;24.61;71.43;94137.56;5012062;28;20189;-84
2022/11/19 08:26:43;;;;;;;7.25;3.28;;;;;;;24.83;71.12;94181.28;5014401;28;20192;-83
2022/11/19 08:29:11;;;;;;;7.32;3.65;;;;;;;24.78;70.93;94161.88;5016087;28;20377;-86
2022/11/19 08:31:40;;;;;;;5.80;3.42;;;;;;;24.77;70.92;94170.75;5009440;28;20185;-87
2022/11/19 08:34:06;;;;;;;4.82;3.35;;;;;;;24.40;71.21;94140.88;5024696;28;20196;-87
2022/11/19 08:36:33;;;;;;;3.38;2.75;;;;;;;24.56;71.41;94166.22;5022447;28;20188;-83
2022/11/19 08:39:03;;;;;;;3.80;3.40;;;;;;;24.53;70.89;94187.63;5018382;28;20219;-85
2022/11/19 08:44:16;;;;;;;3.88;2.78;;;;;;;24.14;71.66;94166.56;4998895;28;20320;-84
2022/11/19 08:46:43;;;;;;;6.45;3.08;;;;;;;24.20;71.60;94186.50;5015019;28;20280;-85
2022/11/19 08:49:11;;;;;;;9.45;2.90;;;;;;;24.17;71.39;94176.50;5014866;28;20624;-83
2022/11/19 08:51:39;;;;;;;5.40;3.28;;;;;;;23.97;71.35;94150.84;5014280;28;20200;-87
2022/11/19 08:54:07;;;;;;;4.97;3.20;;;;;;;23.94;71.60;94151.28;5012945;28;20204;-82
2022/11/19 08:56:34;;;;;;;6.22;3.15;;;;;;;24.09;71.43;94176.88;5010049;28;20279;-85
2022/11/19 08:59:01;;;;;;;4.40;3.22;;;;;;;24.10;71.29;94177.72;5012825;28;20607;-81
2022/11/19 09:01:28;;;;;;;3.55;2.70;;;;;;;23.93;71.31;94160.16;5010486;28;20711;-84
2022/11/19 09:03:59;;;;;;;3.75;2.70;;;;;;;24.11;71.01;94184.50;5011930;28;20690;-81
2022/11/19 09:06:25;;;;;;;3.15;2.80;;;;;;;24.10;71.13;94188.94;5012400;28;20189;-82
2022/11/19 09:08:55;;;;;;;2.95;2.65;;;;;;;24.10;70.70;94196.78;5012040;28;20236;-82
2022/11/19 09:11:23;;;;;;;4.88;3.28;;;;;;;24.06;70.50;94192.25;5013285;28;20683;-81
2022/11/19 09:13:50;;;;;;;4.45;2.90;;;;;;;23.93;70.92;94188.09;5013201;28;20191;-82
2022/11/19 09:16:17;;;;;;;4.40;2.85;;;;;;;23.87;70.95;94199.47;5012144;28;20243;-82
2022/11/19 09:18:45;;;;;;;4.07;3.03;;;;;;;23.77;71.17;94202.69;5012322;28;20228;-83
2022/11/19 09:21:15;;;;;;;3.28;2.78;;;;;;;23.67;70.65;94205.09;5010385;28;20708;-84
2022/11/19 09:23:43;;;;;;;5.03;3.38;;;;;;;23.52;70.35;94195.09;5011227;28;20204;-81
2022/11/19 09:26:13;;;;;;;4.38;2.97;;;;;;;23.36;70.61;94170.50;5015547;28;20193;-81
2022/11/19 09:28:42;;;;;;;4.05;3.05;;;;;;;23.35;70.03;94181.94;5012707;28;20204;-83
2022/11/19 09:31:11;;;;;;;5.10;3.65;;;;;;;23.29;71.86;94175.84;5016516;28;20210;-82
2022/11/19 09:33:44;;;;;;;3.10;2.78;;;;;;;23.34;72.11;94177.75;5018594;28;20207;-82
2022/11/19 09:36:14;;;;;;;5.07;2.72;;;;;;;23.21;72.26;94144.09;5022432;28;20197;-86
2022/11/19 09:38:41;;;;;;;3.65;3.00;;;;;;;23.34;72.58;94156.88;5017070;28;20279;-83
2022/11/19 09:41:30;;;;;;;2.78;2.58;;;;;;;23.25;72.38;94148.63;5013395;28;20196;-84
2022/11/19 09:44:07;;;;;;;4.30;2.88;;;;;;;23.44;72.85;94159.69;5010209;28;20727;-83
2022/11/19 09:46:44;;;;;;;4.45;2.47;;;;;;;23.47;72.61;94142.78;4995352;28;20654;-80
2022/11/19 09:49:16;;;;;;;5.43;2.63;;;;;;;23.49;72.45;94138.94;5008430;28;20267;-80
2022/11/19 09:51:51;;;;;;;5.30;2.58;;;;;;;23.53;72.44;94131.41;5009878;28;20195;-80
2022/11/19 09:54:23;;;;;;;4.80;2.67;;;;;;;23.54;72.60;94117.34;5009138;28;20196;-79
2022/11/19 09:56:55;;;;;;;3.75;2.38;;;;;;;23.55;72.56;94118.94;5008740;28;20195;-80
2022/11/19 09:59:28;;;;;;;6.15;3.03;;;;;;;23.62;72.46;94124.84;5008773;28;20290;-80
2022/11/19 10:01:55;;;;;;;5.22;2.80;;;;;;;23.68;72.70;94123.13;5009262;28;20211;-81
2022/11/19 10:04:24;;;;;;;2.42;2.22;;;;;;;23.78;72.03;94116.25;5009093;28;20247;-81
2022/11/19 10:07:00;;;;;;;3.75;2.63;;;;;;;23.77;71.92;94100.84;5010316;28;20189;-87
2022/11/19 10:09:49;;;;;;;3.45;2.40;;;;;;;23.92;70.86;94093.28;5008871;28;20202;-83
2022/11/19 10:12:31;;;;;;;3.42;2.25;;;;;;;24.06;70.19;94099.00;5009224;28;20197;-81
2022/11/19 10:15:13;;;;;;;2.83;2.60;;;;;;;24.18;69.35;94098.91;5008685;28;20184;-80
2022/11/19 10:17:51;;;;;;;4.47;2.90;;;;;;;24.21;69.03;94108.91;5009600;28;20189;-82
2022/11/19 10:20:33;;;;;;;4.93;2.53;;;;;;;24.16;68.62;94112.22;5009104;28;20234;-84
2022/11/19 10:23:11;;;;;;;2.70;2.50;;;;;;;24.19;68.11;94121.44;5011437;28;20188;-89
2022/11/19 10:25:43;;;;;;;3.30;2.25;;;;;;;24.17;67.59;94119.03;5010860;28;20655;-84
2022/11/19 10:28:16;;;;;;;2.35;2.15;;;;;;;24.24;67.48;94116.28;5010663;28;20644;-86
2022/11/19 10:30:49;;;;;;;2.67;2.00;;;;;;;24.28;67.29;94114.78;5008528;28;20224;-83
2022/11/19 10:33:23;;;;;;;6.35;2.67;;;;;;;24.32;67.27;94105.44;5009032;28;20200;-84
2022/11/19 10:35:58;;;;;;;2.30;2.10;;;;;;;24.21;67.01;94099.25;5009321;28;20200;-84
2022/11/19 10:38:33;;;;;;;3.85;2.35;;;;;;;24.15;66.28;94087.13;5009051;28;20208;-84
2022/11/19 10:41:05;;;;;;;3.08;2.28;;;;;;;24.23;65.68;94104.25;5012804;28;20270;-87
2022/11/19 10:43:38;;;;;;;2.45;2.22;;;;;;;24.17;65.19;94097.34;5014636;28;20220;-83
2022/11/19 10:46:13;;;;;;;2.72;2.38;;;;;;;24.08;65.09;94091.72;5015767;28;20188;-84
2022/11/19 10:48:46;;;;;;;2.83;2.25;;;;;;;24.06;64.81;94088.56;5014561;28;20204;-83
2022/11/19 10:51:21;;;;;;;2.45;2.25;;;;;;;24.13;64.68;94098.84;5015727;28;20279;-89
2022/11/19 10:53:49;;;;;;;5.38;2.13;;;;;;;24.05;64.08;94084.38;5016297;28;20199;-81
2022/11/19 10:56:20;;;;;;;2.30;2.10;;;;;;;23.98;63.91;94079.28;5017288;28;20310;-84
2022/11/19 10:58:51;;;;;;;2.45;2.13;;;;;;;23.87;63.92;94082.72;5014532;28;20292;-84
2022/11/19 11:01:31;;;;;;;6.00;2.05;;;;;;;23.66;64.10;94078.16;5014965;28;20204;-83
2022/11/19 11:04:07;;;;;;;3.40;2.65;;;;;;;23.57;63.90;94085.56;5015008;28;20199;-82
2022/11/19 11:06:50;;;;;;;2.33;1.95;;;;;;;23.45;63.84;94083.00;5014901;28;20219;-82
2022/11/19 11:09:32;;;;;;;2.83;2.13;;;;;;;23.37;63.94;94077.34;5015010;28;20207;-83
2022/11/19 11:14:56;;;;;;;2.85;2.38;;;;;;;23.30;64.11;94061.81;5015133;28;20208;-83
2022/11/19 11:17:27;;;;;;;3.08;2.13;;;;;;;23.42;63.59;94080.06;5014588;28;20570;-84
2022/11/19 11:20:03;;;;;;;2.35;2.10;;;;;;;23.35;63.38;94055.91;5014845;28;20231;-84
2022/11/19 11:22:31;;;;;;;2.90;2.25;;;;;;;23.21;63.74;94032.69;5014420;28;20219;-83
2022/11/19 11:24:59;;;;;;;3.05;2.30;;;;;;;23.07;63.98;94036.59;5014641;28;20196;-83
2022/11/19 11:27:29;;;;;;;2.70;2.20;;;;;;;23.20;63.60;94075.47;5015690;28;20238;-84
2022/11/19 11:30:17;;;;;;;2.30;1.73;;;;;;;22.87;63.85;94038.75;5015903;28;20247;-85
2022/11/19 11:32:47;;;;;;;2.58;2.38;;;;;;;22.76;63.97;94028.13;5028928;28;20203;-84
2022/11/19 11:35:31;;;;;;;2.75;1.83;;;;;;;22.72;64.24;94044.47;5026889;28;20224;-83
2022/11/19 11:37:59;;;;;;;3.15;2.30;;;;;;;22.75;64.03;94057.03;5017988;28;20286;-82
2022/11/19 11:40:28;;;;;;;2.47;2.03;;;;;;;22.50;64.30;94028.63;5014871;28;20724;-83
2022/11/19 11:42:56;;;;;;;2.63;2.30;;;;;;;22.53;64.43;94055.00;5014621;28;20196;-86
2022/11/19 11:45:30;;;;;;;3.65;2.75;;;;;;;22.01;64.28;93984.50;5014563;28;20567;-84
2022/11/19 11:48:05;;;;;;;2.92;2.60;;;;;;;22.30;63.98;94028.94;5014390;28;20194;-82
2022/11/19 11:50:39;;;;;;;2.72;2.22;;;;;;;22.39;64.11;94064.06;5015290;28;20204;-83
2022/11/19 11:53:08;;;;;;;3.03;2.70;;;;;;;22.23;64.04;94039.47;5015064;28;20189;-83
2022/11/19 11:55:37;;;;;;;3.97;2.75;;;;;;;22.38;64.30;94065.09;5014166;28;20204;-82
2022/11/19 11:58:06;;;;;;;3.50;2.58;;;;;;;22.31;64.52;94048.75;5014204;28;20586;-84
2022/11/19 12:00:36;;;;;;;2.58;2.42;;;;;;;22.33;64.63;94056.38;5014520;28;20224;-83
2022/11/19 12:03:08;;;;;;;3.50;2.65;;;;;;;22.26;64.46;94057.25;5014394;28;20188;-84
2022/11/19 12:05:45;;;;;;;4.28;2.78;;;;;;;22.28;64.73;94050.03;5014748;28;20271;-84
2022/11/19 12:08:29;;;;;;;2.80;2.60;;;;;;;22.27;65.06;94048.41;5015618;28;20211;-82
2022/11/19 12:11:02;;;;;;;4.00;2.90;;;;;;;22.28;65.04;94044.03;5015391;28;20280;-85
2022/11/19 12:13:59;;;;;;;5.35;3.17;;;;;;;22.31;64.83;94050.56;5013869;28;20203;-84
2022/11/19 12:16:43;;;;;;;4.57;3.35;;;;;;;22.31;65.14;94051.38;4994422;28;20196;-85
2022/11/19 12:19:31;;;;;;;3.72;2.42;;;;;;;22.24;65.15;94028.06;4994620;28;20291;-83
2022/11/19 12:22:08;;;;;;;4.55;2.80;;;;;;;22.33;65.16;94048.56;4994933;28;20196;-85
2022/11/19 12:25:03;;;;;;;4.03;2.60;;;;;;;22.29;64.95;94035.97;4994641;28;20193;-84